Time;durP1;ratioP1;P1;durP2;ratioP2;P2;SDS_P1;SDS_P2;PMS_P1;PMS_P2;Temp;Humidity;BMP_temperature;BMP_pressure;BME280_temperature;BME280_humidity;BME280_pressure;Samples;Min_cycle;Max_cycle;Signal;HPM_P1;HPM_P2
2023/06/15 00:02:23;;;;;;;6.22;3.00;;;16.40;99.90;;;;;;5089910;28;20118;-52
2023/06/15 00:04:50;;;;;;;6.05;2.80;;;16.30;99.90;;;;;;5091298;28;20036;-55
2023/06/15 00:07:15;;;;;;;5.60;3.00;;;16.30;99.90;;;;;;5087456;28;20173;-52
2023/06/15 00:09:41;;;;;;;3.95;2.85;;;16.20;99.90;;;;;;5098558;28;20075;-56
2023/06/15 00:12:09;;;;;;;4.00;2.63;;;16.20;99.90;;;;;;5092330;28;20044;-51
2023/06/15 00:14:35;;;;;;;;;;;16.20;99.90;;;;;;5089114;28;20052;-56
2023/06/15 00:17:01;;;;;;;5.10;3.30;;;16.20;99.90;;;;;;5096461;28;19927;-56
2023/06/15 00:19:28;;;;;;;7.60;2.90;;;16.10;99.90;;;;;;5090708;28;20396;-53
2023/06/15 00:21:54;;;;;;;4.32;2.85;;;16.10;99.90;;;;;;5097002;28;20059;-52
2023/06/15 00:24:20;;;;;;;4.50;2.92;;;16.10;99.90;;;;;;5088447;28;20449;-52
2023/06/15 00:26:46;;;;;;;5.15;2.80;;;16.00;99.90;;;;;;5114162;28;20089;-54
2023/06/15 00:29:11;;;;;;;6.72;2.97;;;16.00;99.90;;;;;;5083820;28;20052;-56
2023/06/15 00:31:37;;;;;;;9.10;2.60;;;16.00;99.90;;;;;;5097451;28;20047;-52
2023/06/15 00:34:03;;;;;;;4.18;2.60;;;15.90;99.90;;;;;;5096936;28;20047;-54
2023/06/15 00:36:28;;;;;;;4.45;2.72;;;15.90;99.90;;;;;;5089929;28;20489;-53
2023/06/15 00:38:54;;;;;;;5.60;2.80;;;15.90;99.90;;;;;;5096668;28;20401;-55
2023/06/15 00:41:21;;;;;;;4.78;2.85;;;15.80;99.90;;;;;;5096305;28;20055;-52
2023/06/15 00:43:46;;;;;;;3.35;2.75;;;15.80;99.90;;;;;;5113250;28;20500;-51
2023/06/15 00:46:12;;;;;;;5.15;2.70;;;15.80;99.90;;;;;;5101844;28;20101;-52
2023/06/15 00:48:38;;;;;;;5.20;2.78;;;15.80;99.90;;;;;;5095651;28;20047;-52
2023/06/15 00:51:04;;;;;;;6.38;3.13;;;15.70;99.90;;;;;;5094975;28;20041;-56
2023/06/15 00:53:30;;;;;;;5.05;2.67;;;15.70;99.90;;;;;;5093960;28;20078;-53
2023/06/15 00:55:56;;;;;;;4.57;3.03;;;15.70;99.90;;;;;;5096514;28;20128;-56
2023/06/15 00:58:24;;;;;;;5.22;3.00;;;15.60;99.90;;;;;;5095882;28;20477;-55
2023/06/15 01:00:53;;;;;;;4.78;3.20;;;15.60;99.90;;;;;;5108746;28;20064;-52
2023/06/15 01:03:20;;;;;;;4.07;3.05;;;15.60;99.90;;;;;;5095695;28;20068;-54
2023/06/15 01:05:52;;;;;;;4.57;3.28;;;15.60;99.90;;;;;;5097476;28;20048;-54
2023/06/15 01:08:20;;;;;;;5.07;3.17;;;15.50;99.90;;;;;;5061223;28;20044;-54
2023/06/15 01:10:46;;;;;;;7.47;3.38;;;15.50;99.90;;;;;;5077402;28;20111;-55
2023/06/15 01:13:12;;;;;;;5.60;3.08;;;15.50;99.90;;;;;;5076064;28;20390;-52
2023/06/15 01:15:40;;;;;;;6.68;3.25;;;15.40;99.90;;;;;;5080070;28;20036;-57
2023/06/15 01:18:08;;;;;;;4.13;3.58;;;15.40;99.90;;;;;;5116167;28;20048;-55
2023/06/15 01:20:39;;;;;;;4.53;2.95;;;15.40;99.90;;;;;;5098798;28;20047;-53
2023/06/15 01:23:33;;;;;;;3.30;3.00;;;15.30;99.90;;;;;;5095513;28;20047;-51
2023/06/15 01:26:11;;;;;;;5.65;3.22;;;15.30;99.90;;;;;;5089557;28;20047;-51
2023/06/15 01:28:40;;;;;;;4.85;3.50;;;15.30;99.90;;;;;;5095467;28;20052;-55
2023/06/15 01:31:07;;;;;;;4.45;3.08;;;15.20;99.90;;;;;;5095892;28;20047;-55
2023/06/15 01:33:32;;;;;;;5.68;3.40;;;15.20;99.90;;;;;;5091910;28;20041;-55
2023/06/15 01:35:58;;;;;;;5.40;3.13;;;15.20;99.90;;;;;;5080624;28;20047;-54
2023/06/15 01:38:26;;;;;;;7.03;3.50;;;15.10;99.90;;;;;;5095779;28;20452;-51
2023/06/15 01:40:53;;;;;;;5.18;3.65;;;15.10;99.90;;;;;;5094902;28;20052;-54
2023/06/15 01:43:22;;;;;;;4.70;3.30;;;15.10;99.90;;;;;;5091691;28;20079;-51
2023/06/15 01:45:49;;;;;;;6.13;3.08;;;15.10;99.90;;;;;;5092449;28;20036;-54
2023/06/15 01:48:15;;;;;;;4.75;3.63;;;15.10;99.90;;;;;;5070117;28;20080;-56
2023/06/15 01:50:41;;;;;;;6.20;3.63;;;15.00;99.90;;;;;;5089630;28;20041;-52
2023/06/15 01:53:07;;;;;;;5.50;3.70;;;15.00;99.90;;;;;;5095851;28;20040;-55
2023/06/15 01:55:34;;;;;;;6.85;3.90;;;15.00;99.90;;;;;;5095464;28;20047;-53
2023/06/15 01:57:59;;;;;;;6.57;3.70;;;14.90;99.90;;;;;;5095040;28;20119;-53
2023/06/15 02:00:25;;;;;;;6.57;3.17;;;14.90;99.90;;;;;;5096467;28;20067;-52
2023/06/15 02:02:52;;;;;;;6.45;3.58;;;14.90;99.90;;;;;;5093516;28;20039;-55
2023/06/15 02:05:17;;;;;;;7.70;3.88;;;14.90;99.90;;;;;;5093428;28;20044;-51
2023/06/15 02:07:43;;;;;;;4.90;3.50;;;14.80;99.90;;;;;;5102007;28;20044;-53
2023/06/15 02:10:10;;;;;;;4.68;3.10;;;14.80;99.90;;;;;;5107397;28;20040;-55
2023/06/15 02:12:35;;;;;;;8.30;4.25;;;14.80;99.90;;;;;;5094301;28;20036;-55
2023/06/15 02:15:02;;;;;;;4.95;3.78;;;14.80;99.90;;;;;;5094741;28;20496;-52
2023/06/15 02:17:38;;;;;;;5.07;3.78;;;14.70;99.90;;;;;;5095384;28;20119;-54
2023/06/15 02:20:08;;;;;;;7.00;3.50;;;14.80;99.90;;;;;;5092195;28;20040;-54
2023/06/15 02:22:34;;;;;;;7.85;3.95;;;14.70;99.90;;;;;;5060715;28;20040;-51
2023/06/15 02:24:59;;;;;;;5.88;3.40;;;14.70;99.90;;;;;;5105810;28;20046;-51
2023/06/15 02:27:25;;;;;;;4.25;3.65;;;14.70;99.90;;;;;;5107264;28;20040;-52
2023/06/15 02:29:51;;;;;;;9.63;4.28;;;14.70;99.90;;;;;;5097032;28;20041;-54
2023/06/15 02:32:36;;;;;;;9.93;4.03;;;14.60;99.90;;;;;;5099872;28;20497;-56
2023/06/15 02:35:08;;;;;;;5.65;3.85;;;14.60;99.90;;;;;;5076629;28;20050;-53
2023/06/15 02:37:34;;;;;;;5.10;3.67;;;14.60;99.90;;;;;;5079620;28;20050;-54
2023/06/15 02:40:01;;;;;;;5.68;4.00;;;14.60;99.90;;;;;;5087236;28;20048;-56
2023/06/15 02:42:26;;;;;;;4.22;3.83;;;14.50;99.90;;;;;;5102876;28;20044;-57
2023/06/15 02:44:52;;;;;;;4.72;3.83;;;14.50;99.90;;;;;;5098882;28;20382;-53
2023/06/15 02:47:17;;;;;;;4.82;3.95;;;14.50;99.90;;;;;;5099418;28;20032;-54
2023/06/15 02:49:43;;;;;;;5.13;3.72;;;14.50;99.90;;;;;;5100466;28;20047;-51
2023/06/15 02:52:09;;;;;;;7.70;3.90;;;14.50;99.90;;;;;;5099363;28;20036;-57
2023/06/15 02:54:36;;;;;;;6.72;4.05;;;14.40;99.90;;;;;;5076168;28;20040;-51
2023/06/15 02:57:06;;;;;;;6.13;3.80;;;14.40;99.90;;;;;;5091623;28;20105;-54
2023/06/15 02:59:34;;;;;;;7.80;4.32;;;14.40;99.90;;;;;;5115357;28;20127;-57
2023/06/15 03:02:00;;;;;;;5.85;3.97;;;14.40;99.90;;;;;;5106626;28;20048;-53
2023/06/15 03:04:27;;;;;;;5.53;3.97;;;14.30;99.90;;;;;;5101072;28;20386;-53
2023/06/15 03:06:56;;;;;;;4.63;4.03;;;14.40;99.90;;;;;;5100389;28;20079;-55
2023/06/15 03:09:22;;;;;;;5.72;4.07;;;14.30;99.90;;;;;;5083436;28;20036;-57
2023/06/15 03:11:48;;;;;;;6.22;4.07;;;14.30;99.90;;;;;;5100983;28;20043;-52
2023/06/15 03:14:14;;;;;;;6.50;3.67;;;14.30;99.90;;;;;;5100870;28;20040;-54
2023/06/15 03:16:41;;;;;;;4.80;3.65;;;14.30;99.90;;;;;;5100912;28;20116;-51
2023/06/15 03:19:07;;;;;;;4.30;3.80;;;14.30;99.90;;;;;;5077684;28;20059;-52
2023/06/15 03:21:32;;;;;;;7.00;3.85;;;14.30;99.90;;;;;;5096665;28;20047;-53
2023/06/15 03:23:58;;;;;;;6.38;4.00;;;14.30;99.90;;;;;;5096688;28;20036;-52
2023/06/15 03:26:26;;;;;;;5.85;4.40;;;14.30;99.90;;;;;;5087502;28;20036;-51
2023/06/15 03:28:53;;;;;;;7.72;4.35;;;14.30;99.90;;;;;;5097563;28;20048;-53
2023/06/15 03:31:19;;;;;;;6.60;4.57;;;14.30;99.90;;;;;;5098100;28;20076;-52
2023/06/15 03:33:48;;;;;;;6.57;4.25;;;14.30;99.90;;;;;;5099030;28;20090;-51
2023/06/15 03:36:13;;;;;;;5.75;3.97;;;14.30;99.90;;;;;;5079556;28;20050;-51
2023/06/15 03:38:42;;;;;;;7.13;4.22;;;14.30;99.90;;;;;;5097610;28;20044;-51
2023/06/15 03:41:08;;;;;;;6.50;4.30;;;14.30;99.90;;;;;;5096793;28;20052;-54
2023/06/15 03:43:37;;;;;;;9.02;4.32;;;14.30;99.90;;;;;;5084080;28;20055;-52
2023/06/15 03:46:04;;;;;;;7.78;4.43;;;14.30;99.90;;;;;;5079077;28;20495;-52
2023/06/15 03:48:30;;;;;;;8.20;4.63;;;14.30;99.90;;;;;;5080178;28;20574;-54
2023/06/15 03:50:56;;;;;;;5.25;4.45;;;14.40;99.90;;;;;;5099585;28;20213;-52
2023/06/15 03:53:23;;;;;;;5.25;4.43;;;14.40;99.90;;;;;;5098346;28;20421;-56
2023/06/15 03:55:49;;;;;;;6.55;4.88;;;14.40;99.90;;;;;;5097762;28;20047;-54
2023/06/15 03:58:16;;;;;;;11.63;4.57;;;14.40;99.90;;;;;;5097466;28;20040;-55
2023/06/15 04:00:43;;;;;;;8.77;4.28;;;14.40;99.90;;;;;;5093382;28;20048;-56
2023/06/15 04:03:09;;;;;;;9.70;4.45;;;14.40;99.90;;;;;;5097574;28;20048;-56
2023/06/15 04:05:34;;;;;;;7.90;4.78;;;14.40;99.90;;;;;;5097546;28;20078;-52
2023/06/15 04:08:01;;;;;;;6.60;4.20;;;14.50;99.90;;;;;;5098408;28;20548;-51
2023/06/15 04:10:27;;;;;;;8.38;4.50;;;14.50;99.90;;;;;;5097253;28;20051;-53
2023/06/15 04:12:53;;;;;;;5.70;4.30;;;14.50;99.90;;;;;;5094650;28;20394;-55
2023/06/15 04:15:18;;;;;;;5.00;4.50;;;14.50;99.90;;;;;;5096231;28;20047;-53
2023/06/15 04:17:44;;;;;;;7.30;4.55;;;14.60;99.90;;;;;;5089778;28;20036;-51
2023/06/15 04:20:10;;;;;;;8.30;4.50;;;14.60;99.90;;;;;;5097716;28;20076;-53
2023/06/15 04:22:36;;;;;;;6.90;4.22;;;14.70;99.90;;;;;;5096764;28;20096;-53
2023/06/15 04:25:02;;;;;;;8.05;4.60;;;14.70;99.90;;;;;;5097993;28;20095;-56
2023/06/15 04:27:27;;;;;;;7.93;4.20;;;14.80;99.90;;;;;;5097051;28;20096;-55
2023/06/15 04:29:54;;;;;;;6.93;4.32;;;14.90;99.90;;;;;;5097042;28;20066;-53
2023/06/15 04:32:19;;;;;;;5.95;3.92;;;15.00;99.90;;;;;;5092659;28;20076;-53
2023/06/15 04:34:45;;;;;;;4.85;4.28;;;15.20;99.90;;;;;;5095048;28;20036;-54
2023/06/15 04:37:14;;;;;;;12.88;4.70;;;16.80;99.90;;;;;;5096003;28;20120;-56
2023/06/15 04:39:39;;;;;;;8.10;4.65;;;17.00;99.90;;;;;;5094965;28;20076;-55
2023/06/15 04:42:08;;;;;;;5.80;3.90;;;17.90;99.90;;;;;;5116356;28;20043;-51
2023/06/15 04:44:34;;;;;;;8.05;4.30;;;18.50;99.90;;;;;;5099145;28;20043;-52
2023/06/15 04:47:00;;;;;;;5.82;3.90;;;19.20;99.90;;;;;;5098434;28;20044;-52
2023/06/15 04:49:26;;;;;;;7.38;4.72;;;19.90;99.90;;;;;;5098079;28;20412;-53
2023/06/15 04:51:51;;;;;;;7.80;4.13;;;20.10;99.90;;;;;;5091020;28;20439;-53
2023/06/15 04:54:17;;;;;;;5.97;4.20;;;20.40;99.90;;;;;;5096444;28;20058;-54
2023/06/15 04:56:43;;;;;;;5.97;4.05;;;21.10;99.90;;;;;;5095468;28;20122;-54
2023/06/15 04:59:08;;;;;;;5.15;4.10;;;21.20;99.90;;;;;;5097993;28;20048;-54
2023/06/15 05:01:34;;;;;;;7.75;4.25;;;21.30;99.90;;;;;;5095787;28;20489;-52
2023/06/15 05:04:00;;;;;;;6.70;4.05;;;21.80;99.90;;;;;;5060413;28;20541;-52
2023/06/15 05:06:26;;;;;;;4.53;4.00;;;21.90;99.90;;;;;;5095527;28;20123;-56
2023/06/15 05:08:51;;;;;;;7.82;4.40;;;22.10;99.90;;;;;;5092523;28;20071;-55
2023/06/15 05:11:17;;;;;;;7.22;4.10;;;21.90;99.90;;;;;;5095727;28;20047;-55
2023/06/15 05:13:43;;;;;;;6.00;4.50;;;22.20;99.90;;;;;;5097014;28;20040;-55
2023/06/15 05:16:08;;;;;;;9.80;4.35;;;22.70;99.90;;;;;;5103119;28;20036;-53
2023/06/15 05:18:34;;;;;;;8.07;4.13;;;22.80;99.90;;;;;;5096044;28;20109;-53
2023/06/15 05:20:59;;;;;;;6.97;4.25;;;23.00;99.90;;;;;;5098238;28;20071;-50
2023/06/15 05:23:26;;;;;;;7.85;4.20;;;23.00;99.90;;;;;;5098913;28;20044;-49
2023/06/15 05:25:52;;;;;;;6.65;4.65;;;22.80;99.70;;;;;;5098585;28;20040;-49
2023/06/15 05:28:18;;;;;;;5.40;4.50;;;22.90;99.30;;;;;;5092374;28;20055;-52
2023/06/15 05:30:44;;;;;;;8.48;4.10;;;23.30;99.20;;;;;;5096997;28;20036;-49
2023/06/15 05:33:09;;;;;;;7.20;3.65;;;23.70;98.90;;;;;;5118457;28;20051;-50
2023/06/15 05:35:35;;;;;;;5.82;3.97;;;24.10;98.00;;;;;;5100186;28;20051;-53
2023/06/15 05:38:01;;;;;;;8.07;4.18;;;24.30;97.10;;;;;;5098445;28;20075;-51
2023/06/15 05:40:26;;;;;;;4.97;3.78;;;24.60;97.50;;;;;;5097822;28;20063;-51
2023/06/15 05:42:52;;;;;;;6.25;4.28;;;24.40;96.70;;;;;;5081640;28;20496;-52
2023/06/15 05:45:17;;;;;;;5.35;4.40;;;24.30;95.80;;;;;;5090961;28;20050;-53
2023/06/15 05:47:43;;;;;;;6.60;3.78;;;24.30;95.90;;;;;;5076522;28;20047;-53
2023/06/15 05:50:09;;;;;;;6.35;3.92;;;24.70;95.40;;;;;;5115417;28;20044;-53
2023/06/15 05:52:35;;;;;;;5.45;3.97;;;24.40;95.90;;;;;;5096645;28;20047;-51
2023/06/15 05:55:00;;;;;;;6.57;3.95;;;24.50;94.90;;;;;;5094086;28;20036;-51
2023/06/15 05:57:26;;;;;;;6.72;3.75;;;24.50;95.10;;;;;;5094589;28;20497;-55
2023/06/15 05:59:52;;;;;;;7.63;4.10;;;24.70;95.20;;;;;;5095192;28;20048;-52
2023/06/15 06:02:17;;;;;;;4.93;3.97;;;25.10;95.10;;;;;;5084609;28;20041;-50
2023/06/15 06:04:43;;;;;;;6.57;3.63;;;25.20;93.80;;;;;;5083470;28;20043;-50
2023/06/15 06:07:10;;;;;;;6.93;3.65;;;25.60;94.10;;;;;;5098657;28;20036;-52
2023/06/15 06:09:38;;;;;;;3.80;3.40;;;25.10;93.70;;;;;;5098200;28;20079;-55
2023/06/15 06:12:05;;;;;;;5.97;3.70;;;25.10;92.50;;;;;;5097877;28;20038;-53
2023/06/15 06:14:30;;;;;;;5.83;3.30;;;25.70;93.00;;;;;;5098552;28;20050;-56
2023/06/15 06:16:56;;;;;;;4.85;3.10;;;25.70;92.30;;;;;;5099101;28;20463;-53
2023/06/15 06:19:23;;;;;;;3.53;2.60;;;25.90;91.60;;;;;;5099588;28;20040;-50
2023/06/15 06:21:49;;;;;;;7.82;2.88;;;25.60;89.60;;;;;;5093284;28;20043;-55
2023/06/15 06:24:15;;;;;;;3.25;2.67;;;25.60;89.20;;;;;;5079324;28;20044;-51
2023/06/15 06:26:40;;;;;;;7.43;3.20;;;26.10;90.00;;;;;;5100076;28;20036;-55
2023/06/15 06:29:06;;;;;;;5.15;3.10;;;26.10;88.80;;;;;;5099027;28;20130;-51
2023/06/15 06:31:31;;;;;;;7.00;3.08;;;26.10;86.60;;;;;;5099082;28;20131;-56
2023/06/15 06:33:57;;;;;;;2.90;2.55;;;26.30;85.30;;;;;;5094646;28;20040;-54
2023/06/15 06:36:23;;;;;;;4.78;2.88;;;26.30;84.70;;;;;;5079979;28;20040;-53
2023/06/15 06:38:48;;;;;;;8.02;2.67;;;26.00;85.00;;;;;;5097621;28;20043;-54
2023/06/15 06:41:14;;;;;;;9.73;2.90;;;26.10;83.80;;;;;;5118599;28;20468;-53
2023/06/15 06:43:40;;;;;;;3.28;2.70;;;26.50;84.10;;;;;;5097621;28;20044;-52
2023/06/15 06:46:06;;;;;;;4.32;2.65;;;26.70;83.00;;;;;;5089844;28;20039;-51
2023/06/15 06:48:31;;;;;;;7.15;2.67;;;26.60;80.30;;;;;;5096530;28;20370;-55
2023/06/15 06:50:57;;;;;;;6.72;2.88;;;26.60;81.90;;;;;;5096221;28;20075;-55
2023/06/15 06:53:23;;;;;;;4.70;2.80;;;26.70;80.70;;;;;;5093866;28;20072;-51
2023/06/15 06:55:48;;;;;;;5.78;2.97;;;26.90;80.70;;;;;;5095483;28;20040;-54
2023/06/15 06:58:14;;;;;;;5.07;2.65;;;26.80;79.70;;;;;;5097025;28;20035;-56
2023/06/15 07:00:40;;;;;;;3.90;2.45;;;27.20;80.10;;;;;;5078428;28;20131;-55
2023/06/15 07:03:05;;;;;;;3.40;2.95;;;27.60;79.70;;;;;;5096461;28;20040;-51
2023/06/15 07:05:31;;;;;;;4.45;2.25;;;27.90;78.30;;;;;;5097288;28;20040;-53
2023/06/15 07:07:57;;;;;;;7.07;2.60;;;27.80;77.50;;;;;;5098504;28;20432;-53
2023/06/15 07:10:22;;;;;;;4.82;2.70;;;28.00;78.90;;;;;;5098252;28;20044;-52
2023/06/15 07:12:48;;;;;;;3.92;2.75;;;28.00;76.90;;;;;;5103519;28;20047;-55
2023/06/15 07:15:14;;;;;;;3.50;2.40;;;28.30;78.60;;;;;;5097293;28;20040;-54
2023/06/15 07:17:40;;;;;;;6.80;2.80;;;28.00;75.60;;;;;;5092714;28;20140;-55
2023/06/15 07:20:06;;;;;;;5.65;2.63;;;27.70;74.90;;;;;;5096187;28;20080;-55
2023/06/15 07:22:32;;;;;;;6.30;2.42;;;27.60;73.60;;;;;;5092466;28;20535;-55
2023/06/15 07:24:58;;;;;;;5.78;2.80;;;27.50;75.20;;;;;;5093190;28;20118;-51
2023/06/15 07:27:23;;;;;;;6.95;2.58;;;27.70;75.70;;;;;;5096678;28;20068;-56
2023/06/15 07:29:49;;;;;;;5.47;2.30;;;27.90;75.70;;;;;;5088385;28;20040;-56
2023/06/15 07:32:15;;;;;;;5.07;2.47;;;27.70;74.10;;;;;;5106331;28;20028;-52
2023/06/15 07:34:40;;;;;;;3.92;2.50;;;27.80;73.60;;;;;;5096918;28;20086;-52
2023/06/15 07:37:07;;;;;;;3.65;2.90;;;27.70;74.00;;;;;;5076160;28;20238;-55
2023/06/15 07:39:32;;;;;;;5.67;3.27;;;27.40;74.00;;;;;;5095785;28;20511;-57
2023/06/15 07:41:58;;;;;;;5.55;3.00;;;27.00;74.60;;;;;;5093918;28;20044;-52
2023/06/15 07:44:24;;;;;;;6.57;2.80;;;26.90;74.70;;;;;;5097855;28;20485;-55
2023/06/15 07:46:49;;;;;;;7.07;2.88;;;26.60;75.50;;;;;;5097389;28;20071;-56
2023/06/15 07:49:15;;;;;;;5.63;3.30;;;26.10;75.60;;;;;;5092130;28;20040;-52
2023/06/15 07:51:41;;;;;;;8.05;2.80;;;25.60;75.60;;;;;;5069176;28;20047;-53
2023/06/15 07:54:06;;;;;;;6.05;2.65;;;25.40;77.00;;;;;;5086743;28;20047;-55
2023/06/15 07:56:32;;;;;;;4.28;2.92;;;;;;;;;;5078290;28;20123;-53
2023/06/15 07:58:58;;;;;;;7.43;3.10;;;24.70;76.80;;;;;;5090744;28;20178;-56
2023/06/15 08:01:24;;;;;;;6.07;2.40;;;24.60;78.10;;;;;;5088163;28;20210;-56
2023/06/15 08:03:49;;;;;;;4.05;2.88;;;24.70;78.10;;;;;;5091233;28;20043;-56
2023/06/15 08:06:15;;;;;;;7.28;2.83;;;24.50;77.90;;;;;;5071470;28;20040;-57
2023/06/15 08:08:40;;;;;;;5.65;2.97;;;24.40;77.90;;;;;;5090130;28;20032;-56
2023/06/15 08:11:06;;;;;;;4.15;2.70;;;24.10;79.10;;;;;;5089666;28;20459;-56
2023/06/15 08:13:32;;;;;;;6.72;3.03;;;24.10;78.50;;;;;;5091067;28;20058;-55
2023/06/15 08:15:59;;;;;;;5.30;2.60;;;24.30;79.50;;;;;;5090831;28;20040;-56
2023/06/15 08:18:26;;;;;;;5.53;2.65;;;24.50;79.20;;;;;;5072835;28;20085;-56
2023/06/15 08:20:52;;;;;;;6.97;2.80;;;24.50;78.60;;;;;;5091449;28;20059;-54
2023/06/15 08:23:17;;;;;;;3.95;3.03;;;24.80;77.70;;;;;;5091541;28;20043;-54
2023/06/15 08:25:43;;;;;;;4.93;2.55;;;24.70;77.60;;;;;;5071395;28;20040;-51
2023/06/15 08:28:09;;;;;;;7.40;2.88;;;24.60;76.30;;;;;;5090271;28;20047;-52
2023/06/15 08:30:35;;;;;;;6.38;2.60;;;24.40;76.60;;;;;;5092031;28;20477;-52
2023/06/15 08:33:00;;;;;;;4.28;2.28;;;24.60;76.60;;;;;;5089072;28;20086;-56
2023/06/15 08:35:26;;;;;;;3.53;2.42;;;24.80;76.60;;;;;;5088846;28;20410;-53
2023/06/15 08:37:52;;;;;;;3.72;2.47;;;25.00;76.70;;;;;;5090565;28;20032;-51
2023/06/15 08:40:19;;;;;;;3.97;2.67;;;24.90;76.20;;;;;;5089259;28;20048;-54
2023/06/15 08:42:45;;;;;;;3.25;2.58;;;25.00;75.20;;;;;;5090227;28;20039;-51
2023/06/15 08:45:12;;;;;;;3.17;2.58;;;24.90;75.70;;;;;;5097343;28;20118;-55
2023/06/15 08:47:38;;;;;;;6.15;2.63;;;25.10;74.80;;;;;;5089722;28;20055;-53
2023/06/15 08:50:06;;;;;;;3.55;2.67;;;25.20;75.80;;;;;;5092987;28;20070;-55
2023/06/15 08:52:33;;;;;;;6.60;2.80;;;25.00;74.90;;;;;;5106654;22;20039;-56
2023/06/15 08:55:01;;;;;;;5.00;2.35;;;25.10;74.80;;;;;;5047024;28;20090;-55
2023/06/15 08:57:27;;;;;;;6.53;2.78;;;25.20;75.20;;;;;;5082279;28;20083;-52
2023/06/15 08:59:53;;;;;;;6.75;2.50;;;25.30;75.30;;;;;;5081751;28;20048;-52
2023/06/15 09:02:24;;;;;;;6.50;2.60;;;25.30;75.30;;;;;;5081720;28;20706;-52
2023/06/15 09:04:51;;;;;;;8.82;2.47;;;25.20;74.00;;;;;;5081893;28;20125;-52
2023/06/15 09:07:20;;;;;;;4.65;2.60;;;25.30;74.30;;;;;;5087716;28;20409;-53
2023/06/15 09:10:05;;;;;;;5.75;2.63;;;;;;;;;;5085081;28;20180;-51
2023/06/15 09:12:31;;;;;;;6.25;2.60;;;25.50;73.70;;;;;;5073711;28;20033;-51
2023/06/15 09:14:56;;;;;;;3.78;2.40;;;25.70;73.50;;;;;;5074888;28;20394;-55
2023/06/15 09:17:26;;;;;;;4.68;2.50;;;25.50;72.80;;;;;;5063164;28;20033;-53
2023/06/15 09:19:52;;;;;;;5.88;2.83;;;25.90;73.30;;;;;;5072211;28;20044;-52
2023/06/15 09:22:18;;;;;;;3.38;2.47;;;26.00;72.30;;;;;;5056857;28;20048;-55
2023/06/15 09:24:48;;;;;;;5.13;2.80;;;26.10;72.30;;;;;;5085174;28;20408;-54
2023/06/15 09:27:17;;;;;;;6.07;2.53;;;25.80;71.80;;;;;;5079216;28;20047;-52
2023/06/15 09:30:04;;;;;;;6.28;2.60;;;26.00;72.00;;;;;;5075102;28;20102;-53
2023/06/15 09:32:30;;;;;;;4.90;2.67;;;25.80;71.10;;;;;;5074765;28;20066;-55
2023/06/15 09:34:59;;;;;;;3.22;2.53;;;25.80;71.70;;;;;;5078431;28;20458;-55
2023/06/15 09:37:28;;;;;;;4.60;2.33;;;26.00;72.00;;;;;;5080395;28;20040;-53
2023/06/15 09:39:54;;;;;;;3.03;2.72;;;26.30;71.50;;;;;;5085059;28;20036;-56
2023/06/15 09:42:26;;;;;;;4.28;2.65;;;26.30;70.60;;;;;;5062472;28;20040;-54
2023/06/15 09:44:54;;;;;;;4.18;2.47;;;26.40;70.90;;;;;;5058319;28;20041;-53
2023/06/15 09:47:20;;;;;;;3.28;2.63;;;26.60;71.00;;;;;;5054869;28;20043;-54
2023/06/15 09:49:48;;;;;;;4.78;2.95;;;26.70;71.30;;;;;;5051033;28;20402;-51
2023/06/15 09:52:14;;;;;;;4.32;2.65;;;27.00;71.30;;;;;;5052297;28;20033;-56
2023/06/15 09:54:40;;;;;;;3.92;2.70;;;27.00;71.00;;;;;;5066844;28;20064;-55
2023/06/15 09:57:07;;;;;;;3.30;2.33;;;26.90;69.50;;;;;;5067891;28;20112;-53
2023/06/15 09:59:33;;;;;;;3.75;2.53;;;26.90;69.70;;;;;;5068271;28;20116;-56
2023/06/15 10:02:00;;;;;;;3.28;2.58;;;26.60;68.30;;;;;;5055808;28;20119;-55
2023/06/15 10:04:32;;;;;;;5.82;3.00;;;26.50;68.00;;;;;;5051282;28;20073;-53
2023/06/15 10:07:03;;;;;;;3.28;2.50;;;26.50;67.50;;;;;;5064214;28;20112;-52
2023/06/15 10:09:35;;;;;;;5.13;2.65;;;26.50;68.80;;;;;;5063789;28;20041;-53
2023/06/15 10:12:16;;;;;;;4.40;3.08;;;26.30;67.60;;;;;;5052173;28;20051;-54
2023/06/15 10:14:58;;;;;;;3.60;2.90;;;26.40;68.40;;;;;;5051754;28;20386;-51
2023/06/15 10:17:32;;;;;;;4.45;2.75;;;26.50;68.20;;;;;;5056288;28;20041;-52
2023/06/15 10:20:07;;;;;;;4.38;2.55;;;26.70;66.70;;;;;;5057447;28;20048;-54
2023/06/15 10:22:34;;;;;;;4.20;2.72;;;26.90;66.10;;;;;;5057782;28;20076;-55
2023/06/15 10:25:01;;;;;;;3.75;2.63;;;27.00;66.40;;;;;;5061697;28;20086;-54
2023/06/15 10:27:27;;;;;;;3.30;2.95;;;27.20;65.90;;;;;;5055511;28;20037;-54
2023/06/15 10:30:20;;;;;;;5.85;2.83;;;27.30;65.40;;;;;;5053208;28;20090;-51
2023/06/15 10:33:13;;;;;;;4.65;2.50;;;27.50;66.70;;;;;;4966050;28;20110;-57
2023/06/15 10:35:53;;;;;;;4.38;2.88;;;27.30;65.70;;;;;;4968721;28;20054;-56
2023/06/15 10:38:32;;;;;;;4.38;3.10;;;27.30;66.00;;;;;;4967292;28;20055;-57
2023/06/15 10:40:58;;;;;;;7.32;3.00;;;27.20;64.70;;;;;;4958741;28;20078;-51
2023/06/15 10:43:27;;;;;;;4.18;2.72;;;27.30;66.00;;;;;;4962681;28;20090;-57
2023/06/15 10:45:53;;;;;;;5.65;2.80;;;27.30;65.20;;;;;;4972137;28;20186;-56
2023/06/15 10:48:27;;;;;;;3.95;2.83;;;27.30;64.30;;;;;;4973887;28;20038;-56
2023/06/15 10:51:05;;;;;;;5.20;2.88;;;27.00;63.70;;;;;;4967324;28;20042;-54
2023/06/15 10:53:42;;;;;;;2.47;2.10;;;27.40;65.00;;;;;;4967339;28;20528;-57
2023/06/15 10:56:16;;;;;;;4.68;3.05;;;27.60;65.10;;;;;;4968726;28;20469;-53
2023/06/15 10:58:53;;;;;;;5.85;2.58;;;27.70;65.00;;;;;;4971892;28;20050;-53
2023/06/15 11:01:25;;;;;;;4.72;2.88;;;27.50;65.10;;;;;;4978646;28;20038;-54
2023/06/15 11:03:52;;;;;;;3.75;2.70;;;27.60;64.10;;;;;;4981396;28;20051;-55
2023/06/15 11:06:30;;;;;;;4.82;2.65;;;27.40;63.80;;;;;;4972384;28;20042;-53
2023/06/15 11:09:07;;;;;;;4.05;2.58;;;27.40;63.40;;;;;;4983990;28;20165;-53
2023/06/15 11:11:34;;;;;;;4.10;3.03;;;27.50;63.40;;;;;;5054586;28;20086;-55
2023/06/15 11:14:04;;;;;;;5.63;2.97;;;27.60;63.70;;;;;;5046502;28;20037;-54
2023/06/15 11:16:31;;;;;;;5.07;3.03;;;27.50;62.60;;;;;;5044232;28;20372;-54
2023/06/15 11:18:58;;;;;;;4.35;3.10;;;27.50;62.70;;;;;;5055229;28;20556;-52
2023/06/15 11:21:30;;;;;;;8.73;3.15;;;27.80;63.90;;;;;;5047284;28;20510;-54
2023/06/15 11:23:59;;;;;;;5.55;2.90;;;28.20;64.40;;;;;;5045657;28;20044;-54
2023/06/15 11:26:28;;;;;;;6.20;2.90;;;28.40;63.50;;;;;;5050377;28;20120;-52
2023/06/15 11:28:57;;;;;;;3.03;2.65;;;28.10;62.10;;;;;;5049000;28;20494;-55
2023/06/15 11:31:23;;;;;;;5.40;2.70;;;28.50;62.20;;;;;;5044522;28;20044;-55
2023/06/15 11:33:49;;;;;;;7.47;3.20;;;28.30;61.60;;;;;;5045489;28;20052;-53
2023/06/15 11:36:15;;;;;;;6.38;3.13;;;28.10;62.30;;;;;;5044604;28;20479;-53
2023/06/15 11:41:11;;;;;;;4.35;2.67;;;27.70;61.90;;;;;;5085377;22;20052;-47
2023/06/15 11:43:46;;;;;;;5.25;2.70;;;27.80;61.00;;;;;;5080321;28;20040;-47
2023/06/15 11:46:29;;;;;;;2.85;2.50;;;27.60;59.70;;;;;;5080772;28;20101;-48
2023/06/15 11:48:57;;;;;;;5.10;2.70;;;27.60;58.70;;;;;;5076215;28;20405;-46
2023/06/15 11:51:23;;;;;;;4.80;2.85;;;27.80;59.30;;;;;;5079363;28;20086;-47
2023/06/15 11:53:52;;;;;;;5.22;2.67;;;27.90;58.80;;;;;;5078829;28;20116;-46
2023/06/15 11:56:18;;;;;;;5.15;2.35;;;27.80;57.60;;;;;;5078113;28;20036;-47
2023/06/15 11:58:46;;;;;;;5.47;2.38;;;27.80;59.10;;;;;;5086319;28;20481;-48
2023/06/15 12:01:12;;;;;;;5.82;2.45;;;28.00;59.00;;;;;;5089744;28;20047;-47
2023/06/15 12:03:42;;;;;;;4.28;2.53;;;27.80;58.30;;;;;;5081332;28;20044;-50
2023/06/15 12:06:08;;;;;;;3.80;2.50;;;27.60;58.50;;;;;;5091736;28;20044;-50
2023/06/15 12:08:34;;;;;;;4.40;2.72;;;27.70;59.10;;;;;;5087613;28;20050;-49
2023/06/15 12:11:00;;;;;;;4.65;2.70;;;27.80;59.40;;;;;;5075021;28;20072;-47
2023/06/15 12:13:26;;;;;;;4.68;2.80;;;27.50;58.70;;;;;;5086407;28;20485;-47
2023/06/15 12:15:52;;;;;;;2.70;2.50;;;27.90;60.60;;;;;;5081714;28;20052;-46
2023/06/15 12:18:19;;;;;;;4.90;2.42;;;27.90;59.70;;;;;;5084431;28;20039;-50
2023/06/15 12:20:47;;;;;;;4.00;2.50;;;28.10;60.30;;;;;;5075018;28;20115;-46
2023/06/15 12:23:32;;;;;;;3.15;2.80;;;28.10;59.20;;;;;;5086866;28;20047;-46
2023/06/15 12:26:00;;;;;;;6.35;2.78;;;27.90;59.20;;;;;;5078352;28;20588;-47
2023/06/15 12:28:26;;;;;;;5.10;2.60;;;28.00;58.90;;;;;;5089839;28;20169;-46
2023/06/15 12:31:10;;;;;;;4.95;2.60;;;28.10;58.50;;;;;;5082939;28;20036;-48
2023/06/15 12:33:39;;;;;;;4.30;2.70;;;27.80;57.90;;;;;;5076677;28;20059;-46
2023/06/15 12:36:10;;;;;;;5.47;2.47;;;27.80;59.10;;;;;;5059260;28;20032;-46
2023/06/15 12:38:36;;;;;;;4.72;2.50;;;27.50;58.90;;;;;;5086272;28;20032;-46
2023/06/15 12:41:02;;;;;;;3.90;2.50;;;27.50;58.70;;;;;;5081818;28;20553;-48
2023/06/15 12:43:28;;;;;;;4.22;2.83;;;27.60;58.80;;;;;;5080524;28;20097;-46
2023/06/15 12:45:54;;;;;;;4.28;2.70;;;27.80;58.50;;;;;;5085601;28;20043;-46
2023/06/15 12:48:23;;;;;;;3.13;2.65;;;27.80;57.90;;;;;;5097139;28;20421;-46
2023/06/15 12:50:50;;;;;;;3.00;2.70;;;27.70;58.60;;;;;;5090359;28;20043;-47
2023/06/15 12:53:20;;;;;;;2.85;2.42;;;27.80;57.80;;;;;;5089091;28;20093;-47